Accueil
METAR-TAF:

METAR-TAF

Aéroports :

Tahiti, Polynésie française

Aéroport international de Tahiti Fa'a'ā

latitude: 17-33S, longitude: 149-37W, altitude: 2 m

Observation

Le bulletin a été fait il y a 48 minutes, à 08:30 UTC
Vent 6 kt de sud
Température 26°C
Humidité 74%
Pression 1015 hPa
Visibilité 10 km ou plus
Quelques nuages à une hauteur de 2600 ft

METAR: NTAA 260830Z 18006KT 9999 FEW026 26/21 Q1015 NOSIG

Heure: 23:18 (09:18 UTC)

Prévision

Le bulletin a été fait il y a 4 heures et 18 minutes, à 05:00 UTC
Prévision valable du 26 à 06 UTC au 27 à 12 UTC
Vent 3 kt de direction variable
Visibilité 10 km ou plus
Quelques nuages à une hauteur de 2300 ft
Probabilité 30% :
Temporairement
du 26 à 21 UTC au 27 à 06 UTC
Vent 12 kt de sud/sud-ouest

TAF: NTAA 260500Z 2606/2712 VRB03KT 9999 FEW023 PROB30 TEMPO 2621/2706 20012KT

Observations et prévisions météorologiques de plus de 4000 aéroports (messages METAR et TAF).

Les stations disponibles sont représentées par des disques jaunes et rouges sur la carte.

Passer la souris dessus pour voir le nom de la station.

Cliquer dessus pour voir les observations et prévisions météorologiques.

Pour changer de carte: cliquez sur les boutons verts avec une croix noire pour zoomer, sur le bouton vert avec un tiret pour effectuer un zoom arrière, ou sur les flèches vertes pour les cartes adjacentes.


METAR-TAF: